Time;durP1;ratioP1;P1;durP2;ratioP2;P2;SDS_P1;SDS_P2;PMS_P1;PMS_P2;Temp;Humidity;BMP_temperature;BMP_pressure;BME280_temperature;BME280_humidity;BME280_pressure;Samples;Min_cycle;Max_cycle;Signal;HPM_P1;HPM_P2
2023/10/29 00:01:40;;;;;;;2.70;2.17;;;;;;;;;;5044834;28;20479;-75
2023/10/29 00:04:07;;;;;;;3.30;2.20;;;;;;;;;;5016987;28;20995;-75
2023/10/29 00:06:35;;;;;;;3.73;2.20;;;;;;;;;;5016979;28;21007;-75
2023/10/29 00:09:02;;;;;;;4.73;2.33;;;;;;;;;;5022824;28;20448;-75
2023/10/29 00:11:30;;;;;;;3.63;2.40;;;;;;;;;;5040594;28;20533;-73
2023/10/29 00:13:58;;;;;;;2.33;2.03;;;;;;;;;;5046707;28;20456;-73
2023/10/29 00:16:25;;;;;;;5.60;1.80;;;;;;;;;;5048026;28;20966;-74
2023/10/29 00:18:53;;;;;;;3.30;2.30;;;;;;;;;;5039261;28;20454;-73
2023/10/29 00:21:20;;;;;;;3.30;2.50;;;;;;;;;;5047458;28;20563;-73
2023/10/29 00:23:48;;;;;;;2.67;2.20;;;;;;;;;;5039094;28;20462;-73
2023/10/29 00:26:15;;;;;;;6.20;2.90;;;;;;;;;;5047427;28;20500;-73
2023/10/29 00:28:42;;;;;;;3.47;2.40;;;;;;;;;;5038470;28;20545;-73
2023/10/29 00:31:09;;;;;;;3.17;2.73;;;;;;;;;;5043785;28;20469;-73
2023/10/29 00:33:36;;;;;;;3.90;2.60;;;;;;;;;;5043778;28;20956;-73
2023/10/29 00:36:05;;;;;;;2.30;2.10;;;;;;;;;;5046957;28;20536;-73
2023/10/29 00:38:32;;;;;;;2.97;2.23;;;;;;;;;;5039668;28;20468;-73
2023/10/29 00:40:59;;;;;;;2.57;2.03;;;;;;;;;;5046286;28;20466;-73
2023/10/29 00:43:26;;;;;;;2.80;2.03;;;;;;;;;;5040637;28;20454;-73
2023/10/29 00:45:54;;;;;;;4.27;2.13;;;;;;;;;;5037281;28;20493;-73
2023/10/29 00:48:21;;;;;;;4.17;2.60;;;;;;;;;;5047161;28;20458;-73
2023/10/29 00:50:49;;;;;;;2.30;1.97;;;;;;;;;;5037442;28;20546;-74
2023/10/29 00:53:17;;;;;;;5.03;2.40;;;;;;;;;;5035144;28;20545;-73
2023/10/29 00:55:45;;;;;;;6.83;2.60;;;;;;;;;;5044288;28;20543;-73
2023/10/29 00:58:13;;;;;;;2.70;2.40;;;;;;;;;;5046678;28;20453;-73
2023/10/29 01:00:41;;;;;;;2.63;2.00;;;;;;;;;;5046389;28;20453;-73
2023/10/29 01:03:08;;;;;;;1.83;1.63;;;;;;;;;;5043284;28;21026;-73
2023/10/29 01:05:36;;;;;;;2.57;1.90;;;;;;;;;;5042597;28;20928;-73
2023/10/29 01:08:05;;;;;;;3.33;2.10;;;;;;;;;;5043242;28;20450;-73
2023/10/29 01:10:34;;;;;;;2.67;2.20;;;;;;;;;;5043160;28;20473;-73
2023/10/29 01:13:01;;;;;;;2.73;2.10;;;;;;;;;;5043048;28;20490;-73
2023/10/29 01:15:28;;;;;;;4.60;2.60;;;;;;;;;;5043429;28;21078;-73
2023/10/29 01:17:55;;;;;;;3.77;2.07;;;;;;;;;;5045023;28;20485;-73
2023/10/29 01:20:22;;;;;;;3.70;1.97;;;;;;;;;;5046255;28;20448;-73
2023/10/29 01:22:49;;;;;;;2.70;2.20;;;;;;;;;;5044797;28;20482;-73
2023/10/29 01:25:17;;;;;;;3.33;1.97;;;;;;;;;;5042642;28;20476;-73
2023/10/29 01:27:45;;;;;;;2.97;1.70;;;;;;;;;;5043230;28;21057;-73
2023/10/29 01:30:13;;;;;;;1.93;1.57;;;;;;;;;;5045981;28;20449;-73
2023/10/29 01:32:40;;;;;;;2.30;1.83;;;;;;;;;;5045901;28;20998;-73
2023/10/29 01:35:08;;;;;;;1.97;1.60;;;;;;;;;;5042915;28;20887;-73
2023/10/29 01:37:35;;;;;;;2.00;1.80;;;;;;;;;;5042681;28;20452;-73
2023/10/29 01:40:03;;;;;;;4.03;2.27;;;;;;;;;;5045536;28;20825;-73
2023/10/29 01:42:30;;;;;;;2.47;2.27;;;;;;;;;;5046017;28;20534;-73
2023/10/29 01:44:59;;;;;;;3.00;2.40;;;;;;;;;;5043421;28;20450;-73
2023/10/29 01:47:26;;;;;;;3.00;2.53;;;;;;;;;;5042334;28;20567;-73
2023/10/29 01:49:53;;;;;;;4.20;2.57;;;;;;;;;;5042389;28;20830;-73
2023/10/29 01:52:20;;;;;;;3.60;2.70;;;;;;;;;;5042240;28;20477;-73
2023/10/29 01:54:48;;;;;;;3.73;2.40;;;;;;;;;;5043403;28;20803;-73
2023/10/29 01:57:15;;;;;;;3.30;2.63;;;;;;;;;;5042616;28;20450;-73
2023/10/29 01:59:42;;;;;;;5.17;2.87;;;;;;;;;;5041806;28;20529;-73
2023/10/29 02:02:11;;;;;;;3.20;2.27;;;;;;;;;;5042365;28;21001;-73
2023/10/29 02:04:38;;;;;;;2.63;2.20;;;;;;;;;;5042112;28;20466;-73
2023/10/29 02:07:05;;;;;;;2.73;2.20;;;;;;;;;;5034171;28;20507;-73
2023/10/29 02:09:33;;;;;;;2.17;1.87;;;;;;;;;;5033666;28;20458;-73
2023/10/29 02:12:00;;;;;;;4.00;1.70;;;;;;;;;;5044465;28;20616;-73
2023/10/29 02:14:28;;;;;;;2.47;1.90;;;;;;;;;;5045292;28;20457;-73
2023/10/29 02:16:55;;;;;;;2.80;2.10;;;;;;;;;;5042617;28;20457;-73
2023/10/29 02:19:24;;;;;;;2.63;2.13;;;;;;;;;;5041798;28;20461;-73
2023/10/29 02:21:56;;;;;;;3.60;2.77;;;;;;;;;;5043317;28;20474;-73
2023/10/29 02:24:23;;;;;;;2.70;1.70;;;;;;;;;;5045174;28;20449;-73
2023/10/29 02:26:50;;;;;;;3.67;1.57;;;;;;;;;;5043461;28;20583;-73
2023/10/29 02:29:17;;;;;;;1.70;1.60;;;;;;;;;;5041843;28;20454;-73
2023/10/29 02:31:45;;;;;;;5.93;1.70;;;;;;;;;;5042215;28;20561;-73
2023/10/29 02:34:12;;;;;;;2.50;2.20;;;;;;;;;;5045014;28;20445;-73
2023/10/29 02:36:39;;;;;;;2.20;1.80;;;;;;;;;;5045154;28;20460;-73
2023/10/29 02:39:08;;;;;;;3.20;2.40;;;;;;;;;;5041548;28;20537;-73
2023/10/29 02:41:35;;;;;;;3.67;1.80;;;;;;;;;;5033101;28;21065;-73
2023/10/29 02:44:03;;;;;;;3.33;2.40;;;;;;;;;;5044459;28;20994;-73
2023/10/29 02:46:30;;;;;;;2.83;2.10;;;;;;;;;;5045056;28;20496;-73
2023/10/29 02:48:57;;;;;;;3.53;2.23;;;;;;;;;;5036493;28;20462;-73
2023/10/29 02:51:25;;;;;;;5.00;2.10;;;;;;;;;;5044693;28;20559;-73
2023/10/29 02:53:52;;;;;;;2.83;2.10;;;;;;;;;;5036607;28;20492;-73
2023/10/29 02:56:20;;;;;;;2.00;1.60;;;;;;;;;;5044620;28;20532;-73
2023/10/29 02:58:47;;;;;;;3.00;2.30;;;;;;;;;;5043590;28;20488;-73
2023/10/29 03:01:15;;;;;;;2.70;2.13;;;;;;;;;;5041208;28;20473;-72
2023/10/29 03:03:43;;;;;;;4.77;2.80;;;;;;;;;;5042483;28;20458;-72
2023/10/29 03:06:11;;;;;;;5.27;3.40;;;;;;;;;;5045121;28;20501;-72
2023/10/29 03:08:38;;;;;;;3.10;2.73;;;;;;;;;;5044434;28;20496;-72
2023/10/29 03:11:06;;;;;;;5.23;3.37;;;;;;;;;;5032793;28;20535;-72
2023/10/29 03:13:35;;;;;;;6.27;3.80;;;;;;;;;;5041145;28;20450;-72
2023/10/29 03:16:03;;;;;;;4.43;3.47;;;;;;;;;;5044152;28;20831;-72
2023/10/29 03:18:30;;;;;;;4.83;3.03;;;;;;;;;;5044376;28;20473;-72
2023/10/29 03:20:57;;;;;;;4.23;2.60;;;;;;;;;;5041863;28;20460;-72
2023/10/29 03:23:25;;;;;;;3.10;2.30;;;;;;;;;;5040960;28;20494;-72
2023/10/29 03:25:52;;;;;;;5.87;3.90;;;;;;;;;;5041116;28;20460;-72
2023/10/29 03:28:19;;;;;;;5.27;3.67;;;;;;;;;;5042395;28;20499;-72
2023/10/29 03:30:48;;;;;;;5.83;3.90;;;;;;;;;;5044714;28;20907;-72
2023/10/29 03:33:15;;;;;;;14.00;3.70;;;;;;;;;;5041678;28;21009;-72
2023/10/29 03:35:42;;;;;;;3.33;2.77;;;;;;;;;;5039976;28;20544;-72
2023/10/29 03:38:09;;;;;;;4.93;2.53;;;;;;;;;;5048212;28;20965;-72
2023/10/29 03:40:37;;;;;;;3.20;2.70;;;;;;;;;;5040413;28;20545;-72
2023/10/29 03:43:04;;;;;;;3.10;2.43;;;;;;;;;;5044724;28;20975;-72
2023/10/29 03:45:31;;;;;;;4.20;2.73;;;;;;;;;;5045034;28;20449;-72
2023/10/29 03:48:00;;;;;;;4.17;2.57;;;;;;;;;;5047035;28;20504;-72
2023/10/29 03:50:27;;;;;;;4.47;2.70;;;;;;;;;;5047723;28;20471;-72
2023/10/29 03:52:54;;;;;;;8.40;2.90;;;;;;;;;;5037714;28;21017;-72
2023/10/29 03:55:22;;;;;;;2.80;2.50;;;;;;;;;;5044564;28;20541;-72
2023/10/29 03:57:49;;;;;;;4.03;3.43;;;;;;;;;;5044777;28;20453;-72
2023/10/29 04:00:16;;;;;;;3.43;2.60;;;;;;;;;;5044349;28;20471;-72
2023/10/29 04:02:43;;;;;;;3.30;2.70;;;;;;;;;;5044595;28;20465;-72
2023/10/29 04:05:12;;;;;;;4.00;2.50;;;;;;;;;;5047764;28;20613;-72
2023/10/29 04:07:39;;;;;;;3.43;2.37;;;;;;;;;;5039790;28;20494;-72
2023/10/29 04:10:07;;;;;;;3.57;2.50;;;;;;;;;;5036076;28;20453;-72
2023/10/29 04:12:34;;;;;;;3.50;2.60;;;;;;;;;;5043978;28;20572;-72
2023/10/29 04:15:01;;;;;;;3.97;2.90;;;;;;;;;;5038740;28;20456;-72
2023/10/29 04:17:29;;;;;;;3.33;2.40;;;;;;;;;;5040967;28;20932;-72
2023/10/29 04:19:56;;;;;;;3.60;2.27;;;;;;;;;;5045978;28;20533;-72
2023/10/29 04:22:25;;;;;;;3.93;2.80;;;;;;;;;;5047144;28;20500;-72
2023/10/29 04:24:52;;;;;;;26.63;2.60;;;;;;;;;;5045842;28;20441;-72
2023/10/29 04:27:19;;;;;;;6.60;2.57;;;;;;;;;;5043767;28;20493;-72
2023/10/29 04:29:46;;;;;;;3.23;2.50;;;;;;;;;;5044321;28;20453;-72
2023/10/29 04:32:14;;;;;;;5.73;2.80;;;;;;;;;;5047096;28;20473;-72
2023/10/29 04:34:41;;;;;;;10.17;3.40;;;;;;;;;;5047230;28;21036;-72
2023/10/29 04:37:08;;;;;;;5.73;2.50;;;;;;;;;;5039341;28;20545;-72
2023/10/29 04:39:38;;;;;;;3.50;2.63;;;;;;;;;;5046057;28;20456;-72
2023/10/29 04:42:05;;;;;;;7.77;2.90;;;;;;;;;;5043603;28;20917;-72
2023/10/29 04:44:33;;;;;;;5.07;3.27;;;;;;;;;;5043592;28;20886;-73
2023/10/29 04:47:02;;;;;;;8.40;5.00;;;;;;;;;;5043608;28;21279;-72
2023/10/29 04:49:29;;;;;;;8.70;5.73;;;;;;;;;;5043437;28;20502;-72
2023/10/29 04:51:56;;;;;;;4.07;3.20;;;;;;;;;;5045502;28;20477;-72
2023/10/29 04:54:24;;;;;;;3.67;2.90;;;;;;;;;;5046922;28;20993;-72
2023/10/29 04:56:52;;;;;;;2.93;2.57;;;;;;;;;;5045284;28;20535;-72
2023/10/29 04:59:19;;;;;;;4.80;2.60;;;;;;;;;;5042996;28;20466;-72
2023/10/29 05:01:46;;;;;;;3.27;2.77;;;;;;;;;;5044018;28;20478;-72
2023/10/29 05:04:13;;;;;;;3.87;2.53;;;;;;;;;;5042007;28;20540;-72
2023/10/29 05:06:41;;;;;;;3.50;2.60;;;;;;;;;;5043005;28;20458;-72
2023/10/29 05:09:08;;;;;;;3.20;2.90;;;;;;;;;;5046339;28;20555;-72
2023/10/29 05:11:35;;;;;;;5.53;3.30;;;;;;;;;;5046293;28;20469;-72
2023/10/29 05:14:04;;;;;;;3.77;3.20;;;;;;;;;;5035223;28;20470;-72
2023/10/29 05:16:31;;;;;;;13.30;8.33;;;;;;;;;;5043374;28;20457;-72
2023/10/29 05:18:59;;;;;;;13.23;3.83;;;;;;;;;;5036889;28;20453;-72
2023/10/29 05:21:27;;;;;;;4.47;3.00;;;;;;;;;;5046191;28;20516;-72
2023/10/29 05:23:54;;;;;;;5.67;3.30;;;;;;;;;;5044414;28;20461;-72
2023/10/29 05:26:22;;;;;;;3.30;3.00;;;;;;;;;;5040023;28;20457;-72
2023/10/29 05:28:49;;;;;;;3.23;2.80;;;;;;;;;;5043611;28;20524;-72
2023/10/29 05:31:18;;;;;;;4.87;3.50;;;;;;;;;;5039169;28;20476;-72
2023/10/29 05:33:45;;;;;;;6.40;3.20;;;;;;;;;;5036857;28;20460;-72
2023/10/29 05:36:12;;;;;;;4.00;2.57;;;;;;;;;;5034324;28;20454;-72
2023/10/29 05:38:39;;;;;;;3.10;2.77;;;;;;;;;;5042338;28;20952;-72
2023/10/29 05:41:07;;;;;;;5.83;3.80;;;;;;;;;;5034521;28;20478;-72
2023/10/29 05:43:36;;;;;;;4.70;3.43;;;;;;;;;;5033633;28;20458;-72
2023/10/29 05:46:03;;;;;;;4.67;4.17;;;;;;;;;;5044859;28;20459;-72
2023/10/29 05:48:32;;;;;;;10.43;3.30;;;;;;;;;;5038163;28;20588;-72
2023/10/29 05:50:59;;;;;;;5.77;4.10;;;;;;;;;;5044113;28;20460;-72
2023/10/29 05:53:26;;;;;;;3.57;3.27;;;;;;;;;;5044972;28;20838;-72
2023/10/29 05:55:53;;;;;;;5.30;4.27;;;;;;;;;;5036666;28;20465;-72
2023/10/29 05:58:21;;;;;;;5.63;4.20;;;;;;;;;;5038752;28;20464;-72
2023/10/29 06:00:49;;;;;;;6.60;4.67;;;;;;;;;;5032153;28;20458;-72
2023/10/29 06:03:16;;;;;;;6.47;4.80;;;;;;;;;;5040913;28;20959;-73
2023/10/29 06:05:44;;;;;;;7.07;4.70;;;;;;;;;;5041027;28;20457;-73
2023/10/29 06:08:12;;;;;;;14.70;7.47;;;;;;;;;;5038789;28;20503;-73
2023/10/29 06:10:39;;;;;;;10.40;6.70;;;;;;;;;;5032131;28;20211;-73
2023/10/29 06:13:06;;;;;;;8.83;5.07;;;;;;;;;;5040329;28;20921;-73
2023/10/29 06:15:33;;;;;;;9.17;5.90;;;;;;;;;;5040366;28;20458;-73
2023/10/29 06:18:00;;;;;;;8.17;6.83;;;;;;;;;;5040311;28;20454;-73
2023/10/29 06:20:27;;;;;;;7.17;4.33;;;;;;;;;;5032652;28;20460;-74
2023/10/29 06:22:56;;;;;;;6.87;5.93;;;;;;;;;;5032228;28;20552;-73
2023/10/29 06:25:23;;;;;;;5.60;4.90;;;;;;;;;;5032210;28;20497;-74
2023/10/29 06:27:50;;;;;;;8.60;5.77;;;;;;;;;;5032339;28;20525;-73
2023/10/29 06:30:17;;;;;;;6.73;4.93;;;;;;;;;;5032465;28;20807;-73
2023/10/29 06:32:45;;;;;;;6.70;5.40;;;;;;;;;;5032457;28;20999;-73
2023/10/29 06:35:12;;;;;;;6.43;4.83;;;;;;;;;;5032393;28;20449;-73
2023/10/29 06:37:39;;;;;;;8.00;5.80;;;;;;;;;;5032220;28;20964;-73
2023/10/29 06:40:09;;;;;;;13.93;5.80;;;;;;;;;;5032089;28;20541;-73
2023/10/29 06:42:36;;;;;;;4.50;4.03;;;;;;;;;;5032277;28;20564;-74
2023/10/29 06:45:03;;;;;;;5.60;4.70;;;;;;;;;;5032474;28;20477;-74
2023/10/29 06:47:30;;;;;;;4.57;4.00;;;;;;;;;;5032761;28;20935;-73
2023/10/29 06:49:57;;;;;;;11.70;5.43;;;;;;;;;;5032675;28;20820;-73
2023/10/29 06:52:24;;;;;;;8.10;4.20;;;;;;;;;;5032920;28;20477;-74
2023/10/29 06:54:51;;;;;;;4.33;3.93;;;;;;;;;;5032630;28;20548;-75
2023/10/29 06:57:20;;;;;;;4.80;3.80;;;;;;;;;;5032474;28;20480;-74
2023/10/29 06:59:47;;;;;;;8.20;4.23;;;;;;;;;;5032678;28;20505;-74
2023/10/29 07:02:14;;;;;;;3.10;2.80;;;;;;;;;;5032107;28;20564;-74
2023/10/29 07:04:42;;;;;;;5.90;3.63;;;;;;;;;;5032465;28;20449;-74
2023/10/29 07:07:11;;;;;;;4.40;3.50;;;;;;;;;;5032207;28;20458;-74
2023/10/29 07:09:38;;;;;;;6.37;5.23;;;;;;;;;;5032114;28;20503;-74
2023/10/29 07:12:07;;;;;;;5.70;4.40;;;;;;;;;;5032224;28;20972;-74
2023/10/29 07:14:35;;;;;;;6.63;5.13;;;;;;;;;;5031948;28;20462;-74
2023/10/29 07:17:02;;;;;;;6.17;4.87;;;;;;;;;;5032143;28;20544;-74
2023/10/29 07:19:30;;;;;;;6.83;4.50;;;;;;;;;;5038372;28;20961;-74
2023/10/29 07:21:57;;;;;;;4.57;4.17;;;;;;;;;;5032845;28;20469;-74
2023/10/29 07:24:24;;;;;;;6.90;4.13;;;;;;;;;;5031493;28;20485;-74
2023/10/29 07:26:51;;;;;;;7.00;3.93;;;;;;;;;;5041238;28;20497;-74
2023/10/29 07:29:18;;;;;;;4.33;3.50;;;;;;;;;;5040037;28;20528;-74
2023/10/29 07:31:47;;;;;;;4.30;2.77;;;;;;;;;;5039842;28;21044;-76
2023/10/29 07:34:14;;;;;;;3.37;2.80;;;;;;;;;;5041306;28;20461;-75
2023/10/29 07:36:42;;;;;;;3.20;2.73;;;;;;;;;;5042151;28;20458;-76
2023/10/29 07:39:09;;;;;;;2.83;2.40;;;;;;;;;;5029991;28;20457;-75
2023/10/29 07:41:37;;;;;;;3.33;2.50;;;;;;;;;;5029592;28;20498;-75
2023/10/29 07:44:04;;;;;;;5.53;2.43;;;;;;;;;;5033816;28;20461;-75
2023/10/29 07:46:31;;;;;;;5.13;2.77;;;;;;;;;;5041834;28;20567;-76
2023/10/29 07:49:00;;;;;;;4.80;2.90;;;;;;;;;;5039489;28;20994;-76
2023/10/29 07:51:27;;;;;;;6.80;3.17;;;;;;;;;;5029300;28;20525;-76
2023/10/29 07:53:54;;;;;;;11.73;2.40;;;;;;;;;;5039067;28;20456;-77
2023/10/29 07:56:21;;;;;;;5.10;2.00;;;;;;;;;;5039557;28;20864;-77
2023/10/29 07:58:48;;;;;;;2.87;2.17;;;;;;;;;;5041015;28;20540;-76
2023/10/29 08:01:16;;;;;;;2.87;2.23;;;;;;;;;;5038462;28;20485;-75
2023/10/29 08:03:44;;;;;;;4.63;3.60;;;;;;;;;;5031574;28;20457;-77
2023/10/29 08:06:14;;;;;;;9.80;4.97;;;;;;;;;;5039391;28;20553;-76
2023/10/29 08:08:41;;;;;;;5.40;3.30;;;;;;;;;;5039215;28;20501;-75
2023/10/29 08:11:08;;;;;;;3.70;3.00;;;;;;;;;;5039595;28;20469;-75
2023/10/29 08:13:35;;;;;;;4.73;2.40;;;;;;;;;;5031288;28;20540;-75
2023/10/29 08:16:04;;;;;;;4.00;2.40;;;;;;;;;;5042235;28;20536;-76
2023/10/29 08:18:31;;;;;;;4.53;2.47;;;;;;;;;;5042961;28;20477;-75
2023/10/29 08:21:00;;;;;;;7.13;3.73;;;;;;;;;;5045036;28;20988;-75
2023/10/29 08:23:28;;;;;;;7.63;3.57;;;;;;;;;;5046350;28;20453;-75
2023/10/29 08:25:55;;;;;;;7.17;5.70;;;;;;;;;;5044424;28;20449;-75
2023/10/29 08:28:25;;;;;;;45.63;29.53;;;;;;;;;;5042751;28;20543;-75
2023/10/29 08:30:52;;;;;;;47.13;30.70;;;;;;;;;;5042767;28;20910;-75
2023/10/29 08:33:19;;;;;;;12.23;8.73;;;;;;;;;;5042781;28;20458;-75
2023/10/29 08:35:47;;;;;;;4.83;2.90;;;;;;;;;;5042831;28;20454;-76
2023/10/29 08:38:14;;;;;;;12.97;7.33;;;;;;;;;;5034339;28;20451;-75
2023/10/29 08:40:42;;;;;;;94.10;53.77;;;;;;;;;;5036445;28;20489;-76
2023/10/29 08:43:09;;;;;;;16.23;10.43;;;;;;;;;;5033005;28;20475;-76
2023/10/29 08:45:37;;;;;;;10.67;5.90;;;;;;;;;;5038548;28;20760;-75
2023/10/29 08:48:04;;;;;;;130.17;77.07;;;;;;;;;;5045467;28;20460;-76
2023/10/29 08:50:31;;;;;;;57.77;36.07;;;;;;;;;;5045887;28;20566;-76
2023/10/29 08:52:58;;;;;;;28.30;15.80;;;;;;;;;;5043659;28;20986;-75
2023/10/29 08:55:25;;;;;;;20.70;11.10;;;;;;;;;;5042406;28;20461;-75
2023/10/29 08:57:54;;;;;;;8.20;3.63;;;;;;;;;;5043996;28;20999;-75
2023/10/29 09:00:21;;;;;;;8.50;4.60;;;;;;;;;;5045530;28;20548;-75
2023/10/29 09:02:48;;;;;;;9.63;5.90;;;;;;;;;;5044906;28;21050;-75
2023/10/29 09:05:15;;;;;;;12.57;7.47;;;;;;;;;;5042213;28;20457;-76
2023/10/29 09:07:42;;;;;;;4.13;3.00;;;;;;;;;;5042383;28;20450;-76
2023/10/29 09:10:10;;;;;;;27.67;20.20;;;;;;;;;;5042276;28;20606;-75
2023/10/29 09:12:37;;;;;;;9.80;7.10;;;;;;;;;;5042269;28;20855;-77
2023/10/29 09:15:07;;;;;;;9.27;6.37;;;;;;;;;;5037086;28;20943;-77
2023/10/29 09:17:34;;;;;;;54.10;36.20;;;;;;;;;;5045586;28;20532;-77
2023/10/29 09:20:01;;;;;;;7.70;5.20;;;;;;;;;;5034743;28;20457;-78
2023/10/29 09:22:28;;;;;;;14.70;9.87;;;;;;;;;;5034067;28;20564;-77
2023/10/29 09:24:56;;;;;;;27.00;20.03;;;;;;;;;;5044273;28;20548;-77
2023/10/29 09:27:23;;;;;;;9.63;4.97;;;;;;;;;;5039545;28;20472;-76
2023/10/29 09:29:50;;;;;;;5.20;3.97;;;;;;;;;;5042128;28;20493;-75
2023/10/29 09:32:19;;;;;;;5.67;4.17;;;;;;;;;;5038909;28;20537;-77
2023/10/29 09:34:46;;;;;;;9.87;4.90;;;;;;;;;;5044900;28;20470;-78
2023/10/29 09:37:14;;;;;;;7.10;5.40;;;;;;;;;;5031616;28;20736;-77
2023/10/29 09:39:43;;;;;;;5.20;2.90;;;;;;;;;;5040663;28;20584;-78
2023/10/29 09:42:12;;;;;;;5.73;2.70;;;;;;;;;;5034322;28;21055;-77
2023/10/29 09:44:41;;;;;;;6.83;2.80;;;;;;;;;;5040851;28;20828;-77
2023/10/29 09:47:14;;;;;;;3.33;2.50;;;;;;;;;;5044044;28;20487;-78
2023/10/29 09:49:43;;;;;;;3.53;2.90;;;;;;;;;;5035671;28;20493;-78
2023/10/29 09:52:11;;;;;;;3.70;3.13;;;;;;;;;;5040245;28;20483;-77
2023/10/29 09:54:39;;;;;;;6.53;2.90;;;;;;;;;;5040386;28;20458;-77
2023/10/29 09:57:07;;;;;;;4.07;3.60;;;;;;;;;;5040380;28;20806;-77
2023/10/29 09:59:34;;;;;;;6.30;2.73;;;;;;;;;;5031596;28;20484;-77
2023/10/29 10:02:02;;;;;;;6.63;3.00;;;;;;;;;;5042797;28;20486;-77
2023/10/29 10:04:29;;;;;;;6.00;4.23;;;;;;;;;;5043628;28;20456;-77
2023/10/29 10:07:00;;;;;;;7.10;3.20;;;;;;;;;;5041608;28;20452;-78
2023/10/29 10:09:28;;;;;;;5.80;3.20;;;;;;;;;;5039836;28;20505;-77
2023/10/29 10:12:05;;;;;;;5.87;4.00;;;;;;;;;;5042253;28;20473;-77
2023/10/29 10:14:32;;;;;;;9.93;5.43;;;;;;;;;;5044321;28;20452;-77
2023/10/29 10:17:09;;;;;;;5.10;3.23;;;;;;;;;;5036147;28;20465;-77
2023/10/29 10:19:36;;;;;;;9.50;5.73;;;;;;;;;;5044493;28;20860;-77
2023/10/29 10:22:05;;;;;;;2.90;2.53;;;;;;;;;;5041474;28;20556;-77
2023/10/29 10:24:37;;;;;;;4.67;2.30;;;;;;;;;;5032854;28;20466;-75
2023/10/29 10:27:05;;;;;;;17.80;2.23;;;;;;;;;;5041079;28;20484;-76
2023/10/29 10:29:32;;;;;;;2.40;1.80;;;;;;;;;;5033538;28;20486;-76
2023/10/29 10:32:03;;;;;;;3.10;2.07;;;;;;;;;;5033581;28;20548;-76
2023/10/29 10:34:31;;;;;;;4.07;2.67;;;;;;;;;;5032380;28;20466;-75
2023/10/29 10:37:00;;;;;;;3.97;2.10;;;;;;;;;;5032075;28;20462;-75
2023/10/29 10:39:32;;;;;;;2.70;2.00;;;;;;;;;;5032276;28;20822;-76
2023/10/29 10:42:00;;;;;;;3.20;2.10;;;;;;;;;;5032288;28;20505;-76
2023/10/29 10:44:29;;;;;;;6.07;2.20;;;;;;;;;;5031271;28;20470;-76
2023/10/29 10:46:58;;;;;;;5.00;3.10;;;;;;;;;;5032511;28;20912;-74
2023/10/29 10:49:25;;;;;;;2.80;2.37;;;;;;;;;;5031540;28;20493;-74
2023/10/29 10:51:54;;;;;;;4.83;2.40;;;;;;;;;;5031510;28;20473;-76
2023/10/29 10:54:22;;;;;;;3.93;2.30;;;;;;;;;;5031701;28;20461;-76
2023/10/29 10:56:52;;;;;;;5.47;2.20;;;;;;;;;;5031847;28;20458;-74
2023/10/29 10:59:20;;;;;;;4.30;2.40;;;;;;;;;;5031374;28;20474;-75
2023/10/29 11:01:49;;;;;;;4.17;2.57;;;;;;;;;;5031776;28;20509;-75
2023/10/29 11:04:16;;;;;;;3.57;2.30;;;;;;;;;;5032242;28;20450;-75
2023/10/29 11:06:45;;;;;;;2.30;2.10;;;;;;;;;;5031892;28;20508;-75
2023/10/29 11:09:13;;;;;;;6.67;2.50;;;;;;;;;;5032084;28;20489;-74
2023/10/29 11:11:42;;;;;;;3.50;2.37;;;;;;;;;;5031715;28;21055;-75
2023/10/29 11:14:12;;;;;;;2.30;2.00;;;;;;;;;;5032254;28;20449;-75
2023/10/29 11:16:49;;;;;;;3.17;2.10;;;;;;;;;;5032085;28;20572;-75
2023/10/29 11:19:39;;;;;;;3.80;2.13;;;;;;;;;;5032186;28;20501;-75
2023/10/29 11:22:20;;;;;;;3.30;2.00;;;;;;;;;;5031759;28;20987;-75
2023/10/29 11:25:02;;;;;;;3.30;2.07;;;;;;;;;;5032762;28;20446;-75
2023/10/29 11:27:36;;;;;;;2.37;2.17;;;;;;;;;;5031898;28;20512;-75
2023/10/29 11:30:15;;;;;;;3.30;2.00;;;;;;;;;;5032117;28;20558;-75
2023/10/29 11:32:43;;;;;;;4.73;2.20;;;;;;;;;;5031616;28;20556;-75
2023/10/29 11:35:20;;;;;;;2.90;2.23;;;;;;;;;;5031730;28;20456;-75
2023/10/29 11:37:48;;;;;;;3.77;3.37;;;;;;;;;;5031573;28;20453;-75
2023/10/29 11:40:35;;;;;;;3.80;2.23;;;;;;;;;;5031774;28;20599;-75
2023/10/29 11:43:18;;;;;;;4.07;2.20;;;;;;;;;;5031938;28;20519;-74
2023/10/29 11:46:05;;;;;;;3.00;2.10;;;;;;;;;;5039686;28;20830;-75
2023/10/29 11:48:34;;;;;;;1.67;1.40;;;;;;;;;;5036529;28;20478;-75
2023/10/29 11:51:28;;;;;;;2.30;1.87;;;;;;;;;;5045649;28;20884;-75
2023/10/29 11:53:56;;;;;;;3.70;2.13;;;;;;;;;;5045078;28;20550;-76
2023/10/29 11:56:28;;;;;;;3.20;1.80;;;;;;;;;;5040516;28;20575;-75
2023/10/29 11:59:05;;;;;;;5.10;1.63;;;;;;;;;;5038459;28;20464;-74
2023/10/29 12:01:32;;;;;;;5.13;2.27;;;;;;;;;;5046650;28;20472;-75
2023/10/29 12:04:01;;;;;;;2.70;1.63;;;;;;;;;;5044506;28;20451;-75
2023/10/29 12:06:44;;;;;;;3.43;1.73;;;;;;;;;;5041171;28;20571;-75
2023/10/29 12:09:17;;;;;;;5.30;3.70;;;;;;;;;;5035327;28;20497;-76
2023/10/29 12:11:44;;;;;;;3.60;3.30;;;;;;;;;;5043234;28;20520;-76
2023/10/29 12:14:11;;;;;;;3.30;2.03;;;;;;;;;;5046541;28;20951;-75
2023/10/29 12:16:38;;;;;;;4.67;2.13;;;;;;;;;;5046455;28;20449;-75
2023/10/29 12:19:07;;;;;;;2.07;1.60;;;;;;;;;;5037861;28;20463;-76
2023/10/29 12:21:35;;;;;;;2.03;1.80;;;;;;;;;;5039226;28;21037;-75
2023/10/29 12:24:04;;;;;;;3.30;3.00;;;;;;;;;;5045351;28;20485;-75
2023/10/29 12:26:31;;;;;;;2.43;2.23;;;;;;;;;;5046235;28;20460;-75
2023/10/29 12:28:58;;;;;;;2.30;1.80;;;;;;;;;;5043765;28;20448;-74
2023/10/29 12:31:26;;;;;;;2.30;1.83;;;;;;;;;;5040202;28;20480;-74
2023/10/29 12:33:57;;;;;;;7.97;4.20;;;;;;;;;;5037657;28;20472;-74
2023/10/29 12:36:26;;;;;;;2.77;1.40;;;;;;;;;;5046049;28;20492;-74
2023/10/29 12:38:53;;;;;;;2.37;1.63;;;;;;;;;;5037415;28;20495;-74
2023/10/29 12:41:21;;;;;;;2.60;1.60;;;;;;;;;;5045696;28;20472;-74
2023/10/29 12:43:49;;;;;;;2.43;2.10;;;;;;;;;;5037618;28;20468;-74
2023/10/29 12:46:19;;;;;;;2.83;2.23;;;;;;;;;;5041102;28;20454;-74
2023/10/29 12:48:57;;;;;;;2.13;1.43;;;;;;;;;;5042100;28;20565;-75
2023/10/29 12:51:26;;;;;;;2.70;1.90;;;;;;;;;;5042488;28;20960;-76
2023/10/29 12:53:54;;;;;;;3.40;2.37;;;;;;;;;;5043722;28;20461;-76
2023/10/29 12:56:21;;;;;;;2.10;1.60;;;;;;;;;;5045378;28;20478;-76
2023/10/29 12:58:48;;;;;;;4.07;1.30;;;;;;;;;;5045043;28;20540;-76
2023/10/29 13:01:17;;;;;;;2.73;2.03;;;;;;;;;;5041884;28;20565;-77
2023/10/29 13:03:45;;;;;;;6.43;1.90;;;;;;;;;;5043004;28;20823;-75
2023/10/29 13:06:12;;;;;;;3.03;2.10;;;;;;;;;;5044080;28;20476;-77
2023/10/29 13:08:41;;;;;;;2.73;2.03;;;;;;;;;;5042760;28;20467;-77
2023/10/29 13:11:11;;;;;;;2.00;1.80;;;;;;;;;;5034694;28;20498;-77
2023/10/29 13:13:38;;;;;;;4.00;2.20;;;;;;;;;;5043159;28;20461;-78
2023/10/29 13:16:06;;;;;;;3.00;1.53;;;;;;;;;;5038035;28;20814;-77
2023/10/29 13:18:33;;;;;;;4.50;1.70;;;;;;;;;;5038943;28;20460;-77
2023/10/29 13:21:02;;;;;;;2.00;1.80;;;;;;;;;;5044817;28;20492;-78
2023/10/29 13:23:31;;;;;;;1.97;1.60;;;;;;;;;;5039851;28;20458;-77
2023/10/29 13:26:00;;;;;;;2.00;1.60;;;;;;;;;;5044735;28;20479;-78
2023/10/29 13:28:27;;;;;;;4.53;2.47;;;;;;;;;;5046501;28;20939;-76
2023/10/29 13:30:55;;;;;;;2.30;1.97;;;;;;;;;;5038035;28;20577;-76
2023/10/29 13:33:24;;;;;;;3.07;1.50;;;;;;;;;;5041486;28;20596;-78
2023/10/29 13:35:51;;;;;;;2.77;1.90;;;;;;;;;;5043351;28;21077;-76
2023/10/29 13:38:18;;;;;;;4.90;1.70;;;;;;;;;;5042989;28;20468;-77
2023/10/29 13:40:46;;;;;;;4.50;2.13;;;;;;;;;;5043735;28;20445;-78
2023/10/29 13:43:14;;;;;;;2.00;1.50;;;;;;;;;;5046764;28;20485;-78
2023/10/29 13:45:41;;;;;;;3.00;1.50;;;;;;;;;;5039229;28;20457;-78
2023/10/29 13:48:09;;;;;;;7.63;6.67;;;;;;;;;;5035446;28;20462;-78
2023/10/29 13:50:39;;;;;;;8.20;5.97;;;;;;;;;;5043666;28;20584;-76
2023/10/29 13:53:07;;;;;;;4.47;2.40;;;;;;;;;;5045953;28;21058;-78
2023/10/29 13:55:34;;;;;;;18.57;16.60;;;;;;;;;;5047075;28;20459;-78
2023/10/29 13:58:02;;;;;;;6.23;3.20;;;;;;;;;;5044686;28;20465;-77
2023/10/29 14:00:31;;;;;;;4.20;3.57;;;;;;;;;;5043101;28;20537;-77
2023/10/29 14:02:58;;;;;;;3.70;2.60;;;;;;;;;;5044862;28;20461;-77
2023/10/29 14:05:25;;;;;;;3.60;2.23;;;;;;;;;;5046470;28;20935;-79
2023/10/29 14:07:54;;;;;;;6.77;6.10;;;;;;;;;;5037548;28;20488;-77
2023/10/29 14:10:21;;;;;;;3.47;2.93;;;;;;;;;;5046198;28;20480;-77
2023/10/29 14:12:48;;;;;;;3.67;3.30;;;;;;;;;;5044580;28;20476;-77
2023/10/29 14:15:16;;;;;;;3.90;2.87;;;;;;;;;;5042822;28;20459;-77
2023/10/29 14:17:44;;;;;;;4.50;4.00;;;;;;;;;;5043129;28;20483;-77
2023/10/29 14:20:12;;;;;;;3.87;2.33;;;;;;;;;;5034783;28;20545;-77
2023/10/29 14:22:39;;;;;;;7.57;2.97;;;;;;;;;;5041702;28;20842;-77
2023/10/29 14:25:07;;;;;;;4.33;3.13;;;;;;;;;;5041586;28;20608;-75
2023/10/29 14:27:34;;;;;;;3.40;2.80;;;;;;;;;;5041022;28;20535;-75
2023/10/29 14:30:02;;;;;;;12.10;4.00;;;;;;;;;;5035610;28;20497;-75
2023/10/29 14:32:29;;;;;;;2.97;2.30;;;;;;;;;;5044469;28;20469;-75
2023/10/29 14:34:58;;;;;;;4.83;2.50;;;;;;;;;;5042669;28;20976;-75
2023/10/29 14:37:25;;;;;;;18.83;15.10;;;;;;;;;;5033319;28;20453;-76
2023/10/29 14:39:52;;;;;;;6.90;4.00;;;;;;;;;;5033365;28;20458;-76
2023/10/29 14:42:20;;;;;;;17.53;8.97;;;;;;;;;;5033409;28;20918;-77
2023/10/29 14:44:51;;;;;;;22.93;7.23;;;;;;;;;;5033367;28;20468;-76
2023/10/29 14:47:19;;;;;;;13.87;5.87;;;;;;;;;;5044217;28;20467;-76